sim
Sign-in with your pilot id or email,
or register
Callsign
Passwort

Schedule Details

Flight Number: DLH2308
Departure: Munich Airport (EDDM) at 16:35
Arrival: Amsterdam Schiphol Airport (EHAM) at 18:10
Route: Lufthansa Passenger Schedule. Enter filed route here before submitting Pirep.

Weather Information
Getting current METAR information for EDDM 240420Z VRB02KT CAVOK 09/09 Q1009 NOSIG
Getting current METAR information for EHAM 240425Z 25017KT 220V280 9999 FEW024 SCT045 13/08 Q0999 NOSIG

Schedule Frequency

Route Map